»·PEaware :: N329SB KVNY-KSNA

N329SB :: KVNY-KSNA

FLIGHT INFORMATION

Flight Status: Arrived
Operator: Privately registered:
United States
More flights under this callsign
Pilot: Skip B. (16331)
Aircraft: CESSNA 172 SKYHAWK
(C172)
More flights by this aircraft type
Origin: KVNY Van Nuys
United States
Destination: KSNA John Wayne-Orange Co
United States
More flights between these airports :: More routes between these airports
Route: +
File this flight plan on PilotEdge
Remarks: CAT10
Altitude:
(Current/Filed)
5,500ft
Speed:
(Current/Filed)
0kts
Departed: 14-Apr-18 04:25 PM
Arrived: 14-Apr-18 05:01 PM
Distance/Time
Traveled:
44nm/0:36
Distance/Time
To Go:
Arrived

Flight Plot

Page will automatically refresh every two minutes.


Map Options




Map Legend


Flown Route
Filed Route
Departure Airport
Arrival Airport
Navaid (VOR, NDB)
Fix

Horizontal Profiles

Position Reports

Time Latitude Longitude Heading Altitude Ground
Speed
14-Apr-18 16:18 34.210260 -118.491818 354 806ft 0kts
14-Apr-18 16:19 34.210260 -118.491818 354 806ft 0kts
14-Apr-18 16:20 34.212657 -118.491792 352 806ft 22kts
14-Apr-18 16:21 34.217050 -118.492266 1 806ft 14kts
14-Apr-18 16:22 34.218648 -118.492163 30 806ft 0kts
14-Apr-18 16:23 34.218761 -118.491832 79 806ft 12kts
14-Apr-18 16:24 34.209408 -118.490405 181 1071ft 73kts
14-Apr-18 16:25 34.200441 -118.504599 278 2045ft 70kts
14-Apr-18 16:26 34.205978 -118.526508 307 2868ft 85kts
14-Apr-18 16:27 34.221698 -118.549900 293 3717ft 72kts
14-Apr-18 16:28 34.215469 -118.571533 193 4513ft 85kts
14-Apr-18 16:29 34.195212 -118.562714 150 5390ft 76kts
14-Apr-18 16:30 34.173090 -118.556648 160 5559ft 84kts
14-Apr-18 16:31 34.147615 -118.544350 164 5529ft 109kts
14-Apr-18 16:32 34.118982 -118.527993 155 5504ft 119kts
14-Apr-18 16:33 34.089595 -118.512787 171 5501ft 113kts
14-Apr-18 16:34 34.060681 -118.496611 156 5492ft 113kts
14-Apr-18 16:35 34.032224 -118.481380 159 5512ft 113kts
14-Apr-18 16:36 34.003802 -118.465747 171 5524ft 111kts
14-Apr-18 16:37 33.974531 -118.453390 160 5553ft 113kts
14-Apr-18 16:38 33.945424 -118.439049 166 5581ft 113kts
14-Apr-18 16:39 33.916597 -118.420640 143 5495ft 122kts
14-Apr-18 16:40 33.891200 -118.394489 143 5519ft 119kts
14-Apr-18 16:41 33.868324 -118.364769 137 5514ft 123kts
14-Apr-18 16:42 33.842634 -118.339037 144 5571ft 120kts
14-Apr-18 16:43 33.817509 -118.311635 145 5581ft 121kts
14-Apr-18 16:44 33.791871 -118.284804 133 5576ft 124kts
14-Apr-18 16:45 33.766655 -118.255975 142 5521ft 122kts
14-Apr-18 16:46 33.740345 -118.229772 144 5503ft 122kts
14-Apr-18 16:47 33.714237 -118.203664 143 5508ft 121kts
14-Apr-18 16:48 33.689241 -118.176346 144 5499ft 121kts
14-Apr-18 16:49 33.666565 -118.147508 104 5152ft 129kts
14-Apr-18 16:50 33.672988 -118.106617 73 4520ft 126kts
14-Apr-18 16:51 33.682673 -118.066535 73 3885ft 124kts
14-Apr-18 16:52 33.694906 -118.027866 69 3500ft 122kts
14-Apr-18 16:53 33.706969 -117.989737 71 3542ft 122kts
14-Apr-18 16:54 33.719118 -117.951349 68 3544ft 125kts
14-Apr-18 16:55 33.712354 -117.917357 140 2411ft 115kts
14-Apr-18 16:56 33.687128 -117.903406 169 1153ft 93kts
14-Apr-18 16:57 33.690055 -117.881597 30 979ft 88kts
14-Apr-18 16:58 33.697182 -117.862005 129 636ft 67kts
14-Apr-18 16:59 33.684363 -117.863326 210 170ft 44kts
14-Apr-18 17:00 33.677967 -117.868055 293 60ft 13kts
14-Apr-18 17:01 33.678067 -117.868771 226 60ft 11kts
14-Apr-18 17:02 33.677352 -117.869879 296 60ft 0kts
14-Apr-18 17:03 33.677352 -117.869879 296 60ft 0kts
14-Apr-18 17:04 33.677352 -117.869879 296 60ft 0kts
14-Apr-18 17:05 33.677352 -117.869879 296 60ft 0kts
14-Apr-18 17:06 33.677352 -117.869879 296 60ft 0kts
14-Apr-18 17:07 33.677352 -117.869879 296 60ft 0kts
14-Apr-18 17:08 33.677352 -117.869879 296 60ft 0kts
14-Apr-18 17:09 33.677352 -117.869879 296 60ft 0kts
14-Apr-18 17:10 33.677352 -117.869879 296 60ft 0kts
14-Apr-18 17:11 33.677352 -117.869879 296 60ft 0kts

Navigation Log

Ident Type
1. KVNY Airport
2. KSNA Airport